sensor_id;sensor_type;location;lat;lon;timestamp;temperature;humidity
38606;DHT22;24365;48.446;8.850;2022-12-18T00:01:45;-9.60;63.30
38606;DHT22;24365;48.446;8.850;2022-12-18T00:06:46;-9.60;62.70
38606;DHT22;24365;48.446;8.850;2022-12-18T00:11:46;-9.70;63.20
38606;DHT22;24365;48.446;8.850;2022-12-18T00:16:47;-9.70;62.40
38606;DHT22;24365;48.446;8.850;2022-12-18T00:21:48;-9.90;62.40
38606;DHT22;24365;48.446;8.850;2022-12-18T00:26:49;-9.90;62.70
38606;DHT22;24365;48.446;8.850;2022-12-18T00:31:50;-9.90;62.30
38606;DHT22;24365;48.446;8.850;2022-12-18T00:36:51;-9.90;62.50
38606;DHT22;24365;48.446;8.850;2022-12-18T00:41:52;-10.00;62.20
38606;DHT22;24365;48.446;8.850;2022-12-18T00:47:11;-10.00;62.40
38606;DHT22;24365;48.446;8.850;2022-12-18T00:52:12;-10.00;62.50
38606;DHT22;24365;48.446;8.850;2022-12-18T00:57:13;-10.00;62.20
38606;DHT22;24365;48.446;8.850;2022-12-18T01:02:14;-10.00;62.20
38606;DHT22;24365;48.446;8.850;2022-12-18T01:07:14;-10.20;61.70
38606;DHT22;24365;48.446;8.850;2022-12-18T01:12:16;-10.20;62.10
38606;DHT22;24365;48.446;8.850;2022-12-18T01:17:16;-10.10;61.90
38606;DHT22;24365;48.446;8.850;2022-12-18T01:22:17;-10.20;61.80
38606;DHT22;24365;48.446;8.850;2022-12-18T01:27:19;-10.20;61.50
38606;DHT22;24365;48.446;8.850;2022-12-18T01:32:20;-10.10;61.70
38606;DHT22;24365;48.446;8.850;2022-12-18T01:37:21;-10.10;61.70
38606;DHT22;24365;48.446;8.850;2022-12-18T01:42:23;-10.10;61.60
38606;DHT22;24365;48.446;8.850;2022-12-18T01:47:42;-10.10;61.40
38606;DHT22;24365;48.446;8.850;2022-12-18T01:52:47;-10.10;61.70
38606;DHT22;24365;48.446;8.850;2022-12-18T01:57:53;-10.10;61.50
38606;DHT22;24365;48.446;8.850;2022-12-18T02:02:55;-10.10;61.50
38606;DHT22;24365;48.446;8.850;2022-12-18T02:13:26;-10.00;61.60
38606;DHT22;24365;48.446;8.850;2022-12-18T02:18:33;-10.10;60.90
38606;DHT22;24365;48.446;8.850;2022-12-18T02:28:56;-10.30;61.70
38606;DHT22;24365;48.446;8.850;2022-12-18T02:34:04;-10.20;62.70
38606;DHT22;24365;48.446;8.850;2022-12-18T02:39:12;-10.10;62.60
38606;DHT22;24365;48.446;8.850;2022-12-18T02:44:21;-10.00;61.30
38606;DHT22;24365;48.446;8.850;2022-12-18T03:05:08;-10.00;61.30
38606;DHT22;24365;48.446;8.850;2022-12-18T03:10:14;-10.00;61.10
38606;DHT22;24365;48.446;8.850;2022-12-18T03:15:31;-10.00;61.10
38606;DHT22;24365;48.446;8.850;2022-12-18T03:20:44;-10.10;61.00
38606;DHT22;24365;48.446;8.850;2022-12-18T03:25:47;-10.10;61.00
38606;DHT22;24365;48.446;8.850;2022-12-18T03:30:54;-10.10;61.10
38606;DHT22;24365;48.446;8.850;2022-12-18T03:35:56;-10.20;61.70
38606;DHT22;24365;48.446;8.850;2022-12-18T03:46:28;-10.30;60.70
38606;DHT22;24365;48.446;8.850;2022-12-18T03:51:53;-10.30;60.90
38606;DHT22;24365;48.446;8.850;2022-12-18T03:56:59;-10.40;60.90
38606;DHT22;24365;48.446;8.850;2022-12-18T04:02:04;-10.50;60.90
38606;DHT22;24365;48.446;8.850;2022-12-18T04:07:07;-10.50;60.70
38606;DHT22;24365;48.446;8.850;2022-12-18T04:12:12;-10.50;60.70
38606;DHT22;24365;48.446;8.850;2022-12-18T04:17:14;-10.60;60.70
38606;DHT22;24365;48.446;8.850;2022-12-18T04:22:15;-10.60;60.70
38606;DHT22;24365;48.446;8.850;2022-12-18T04:27:21;-10.70;60.70
38606;DHT22;24365;48.446;8.850;2022-12-18T04:32:24;-10.70;60.60
38606;DHT22;24365;48.446;8.850;2022-12-18T04:37:25;-10.70;60.50
38606;DHT22;24365;48.446;8.850;2022-12-18T04:42:26;-10.80;60.10
38606;DHT22;24365;48.446;8.850;2022-12-18T04:47:27;-10.80;60.30
38606;DHT22;24365;48.446;8.850;2022-12-18T04:52:28;-10.90;60.60
38606;DHT22;24365;48.446;8.850;2022-12-18T04:57:31;-10.90;60.50
38606;DHT22;24365;48.446;8.850;2022-12-18T05:02:32;-10.90;60.30
38606;DHT22;24365;48.446;8.850;2022-12-18T05:07:33;-11.00;60.20
38606;DHT22;24365;48.446;8.850;2022-12-18T05:12:34;-11.00;60.20
38606;DHT22;24365;48.446;8.850;2022-12-18T05:17:56;-11.00;60.20
38606;DHT22;24365;48.446;8.850;2022-12-18T05:22:57;-11.10;60.10
38606;DHT22;24365;48.446;8.850;2022-12-18T05:27:58;-11.10;59.90
38606;DHT22;24365;48.446;8.850;2022-12-18T05:32:59;-11.20;59.60
38606;DHT22;24365;48.446;8.850;2022-12-18T05:37:59;-11.20;59.80
38606;DHT22;24365;48.446;8.850;2022-12-18T05:43:00;-11.20;59.70
38606;DHT22;24365;48.446;8.850;2022-12-18T05:48:01;-11.30;59.80
38606;DHT22;24365;48.446;8.850;2022-12-18T05:53:03;-11.30;59.70
38606;DHT22;24365;48.446;8.850;2022-12-18T05:58:05;-11.40;59.70
38606;DHT22;24365;48.446;8.850;2022-12-18T06:03:08;-11.40;59.60
38606;DHT22;24365;48.446;8.850;2022-12-18T06:08:10;-11.50;59.10
38606;DHT22;24365;48.446;8.850;2022-12-18T06:13:11;-11.50;59.70
38606;DHT22;24365;48.446;8.850;2022-12-18T06:18:12;-11.50;59.70
38606;DHT22;24365;48.446;8.850;2022-12-18T06:23:12;-11.50;59.70
38606;DHT22;24365;48.446;8.850;2022-12-18T06:28:13;-11.50;59.50
38606;DHT22;24365;48.446;8.850;2022-12-18T06:33:15;-11.60;59.40
38606;DHT22;24365;48.446;8.850;2022-12-18T06:38:16;-11.60;59.40
38606;DHT22;24365;48.446;8.850;2022-12-18T06:43:18;-11.70;59.50
38606;DHT22;24365;48.446;8.850;2022-12-18T06:48:19;-11.70;59.30
38606;DHT22;24365;48.446;8.850;2022-12-18T06:53:20;-11.80;58.90
38606;DHT22;24365;48.446;8.850;2022-12-18T06:58:21;-11.70;59.20
38606;DHT22;24365;48.446;8.850;2022-12-18T07:03:22;-11.80;59.20
38606;DHT22;24365;48.446;8.850;2022-12-18T07:08:23;-11.80;59.00
38606;DHT22;24365;48.446;8.850;2022-12-18T07:13:24;-11.90;59.90
38606;DHT22;24365;48.446;8.850;2022-12-18T07:18:25;-12.00;59.80
38606;DHT22;24365;48.446;8.850;2022-12-18T07:23:26;-11.90;59.30
38606;DHT22;24365;48.446;8.850;2022-12-18T07:28:26;-12.00;59.00
38606;DHT22;24365;48.446;8.850;2022-12-18T07:33:27;-12.00;58.80
38606;DHT22;24365;48.446;8.850;2022-12-18T07:38:28;-12.00;58.50
38606;DHT22;24365;48.446;8.850;2022-12-18T07:43:29;-12.00;58.60
38606;DHT22;24365;48.446;8.850;2022-12-18T07:48:30;-12.00;58.70
38606;DHT22;24365;48.446;8.850;2022-12-18T07:53:32;-12.00;58.50
38606;DHT22;24365;48.446;8.850;2022-12-18T07:58:34;-11.90;58.30
38606;DHT22;24365;48.446;8.850;2022-12-18T08:03:35;-11.90;58.30
38606;DHT22;24365;48.446;8.850;2022-12-18T08:08:36;-11.90;58.20
38606;DHT22;24365;48.446;8.850;2022-12-18T08:13:36;-11.90;58.00
38606;DHT22;24365;48.446;8.850;2022-12-18T08:18:38;-11.80;57.70
38606;DHT22;24365;48.446;8.850;2022-12-18T08:23:39;-11.80;57.50
38606;DHT22;24365;48.446;8.850;2022-12-18T08:28:41;-11.80;57.50
38606;DHT22;24365;48.446;8.850;2022-12-18T08:33:42;-11.80;57.20
38606;DHT22;24365;48.446;8.850;2022-12-18T08:38:43;-11.80;57.10
38606;DHT22;24365;48.446;8.850;2022-12-18T08:43:44;-11.80;56.90
38606;DHT22;24365;48.446;8.850;2022-12-18T08:49:04;-11.80;56.60
38606;DHT22;24365;48.446;8.850;2022-12-18T08:54:07;-11.70;56.70
38606;DHT22;24365;48.446;8.850;2022-12-18T08:59:10;-11.70;56.70
38606;DHT22;24365;48.446;8.850;2022-12-18T09:04:11;-11.70;56.60
38606;DHT22;24365;48.446;8.850;2022-12-18T09:09:12;-11.70;56.70
38606;DHT22;24365;48.446;8.850;2022-12-18T09:14:13;-11.60;56.50
38606;DHT22;24365;48.446;8.850;2022-12-18T09:19:14;-11.60;56.50
38606;DHT22;24365;48.446;8.850;2022-12-18T09:24:15;-11.50;56.20
38606;DHT22;24365;48.446;8.850;2022-12-18T09:29:17;-11.50;56.30
38606;DHT22;24365;48.446;8.850;2022-12-18T09:34:18;-11.40;56.60
38606;DHT22;24365;48.446;8.850;2022-12-18T09:39:21;-11.40;56.50
38606;DHT22;24365;48.446;8.850;2022-12-18T09:49:35;-11.30;56.80
38606;DHT22;24365;48.446;8.850;2022-12-18T09:54:41;-11.30;56.50
38606;DHT22;24365;48.446;8.850;2022-12-18T09:59:54;-11.30;56.70
38606;DHT22;24365;48.446;8.850;2022-12-18T10:05:13;-11.20;56.80
38606;DHT22;24365;48.446;8.850;2022-12-18T10:16:09;-11.00;56.80
38606;DHT22;24365;48.446;8.850;2022-12-18T10:21:17;-11.00;57.00
38606;DHT22;24365;48.446;8.850;2022-12-18T10:26:20;-11.00;57.30
38606;DHT22;24365;48.446;8.850;2022-12-18T10:31:23;-10.90;58.10
38606;DHT22;24365;48.446;8.850;2022-12-18T10:36:24;-10.70;59.90
38606;DHT22;24365;48.446;8.850;2022-12-18T10:41:26;-10.50;60.40
38606;DHT22;24365;48.446;8.850;2022-12-18T10:46:27;-10.40;60.80
38606;DHT22;24365;48.446;8.850;2022-12-18T10:51:36;-10.10;62.50
38606;DHT22;24365;48.446;8.850;2022-12-18T10:56:38;-9.80;63.90
38606;DHT22;24365;48.446;8.850;2022-12-18T11:01:53;-9.60;64.60
38606;DHT22;24365;48.446;8.850;2022-12-18T11:07:00;-9.30;65.10
38606;DHT22;24365;48.446;8.850;2022-12-18T11:12:04;-9.20;65.80
38606;DHT22;24365;48.446;8.850;2022-12-18T11:17:33;-9.10;67.70
38606;DHT22;24365;48.446;8.850;2022-12-18T11:22:36;-8.90;68.40
38606;DHT22;24365;48.446;8.850;2022-12-18T11:27:39;-8.60;68.70
38606;DHT22;24365;48.446;8.850;2022-12-18T11:32:43;-8.40;69.80
38606;DHT22;24365;48.446;8.850;2022-12-18T11:37:54;-8.20;69.80
38606;DHT22;24365;48.446;8.850;2022-12-18T11:43:28;-8.10;71.00
38606;DHT22;24365;48.446;8.850;2022-12-18T11:48:34;-7.70;70.90
38606;DHT22;24365;48.446;8.850;2022-12-18T11:53:38;-7.40;70.60
38606;DHT22;24365;48.446;8.850;2022-12-18T12:04:35;-7.20;71.40
38606;DHT22;24365;48.446;8.850;2022-12-18T12:15:13;-6.40;72.20
38606;DHT22;24365;48.446;8.850;2022-12-18T12:20:42;-6.10;72.10
38606;DHT22;24365;48.446;8.850;2022-12-18T12:25:48;-5.90;71.90
38606;DHT22;24365;48.446;8.850;2022-12-18T12:31:14;-5.70;72.10
38606;DHT22;24365;48.446;8.850;2022-12-18T12:41:32;-5.40;71.70
38606;DHT22;24365;48.446;8.850;2022-12-18T12:46:59;-5.30;70.60
38606;DHT22;24365;48.446;8.850;2022-12-18T12:52:27;-5.30;71.20
38606;DHT22;24365;48.446;8.850;2022-12-18T12:57:41;-5.10;72.50
38606;DHT22;24365;48.446;8.850;2022-12-18T13:08:12;-4.70;72.80
38606;DHT22;24365;48.446;8.850;2022-12-18T13:13:22;-4.50;71.70
38606;DHT22;24365;48.446;8.850;2022-12-18T13:18:24;-4.60;71.20
38606;DHT22;24365;48.446;8.850;2022-12-18T13:33:48;-5.00;72.10
38606;DHT22;24365;48.446;8.850;2022-12-18T13:49:40;-4.90;75.60
38606;DHT22;24365;48.446;8.850;2022-12-18T13:54:42;-4.80;74.70
38606;DHT22;24365;48.446;8.850;2022-12-18T13:59:43;-4.90;74.60
38606;DHT22;24365;48.446;8.850;2022-12-18T14:04:50;-4.90;75.20
38606;DHT22;24365;48.446;8.850;2022-12-18T14:09:57;-5.00;75.00
38606;DHT22;24365;48.446;8.850;2022-12-18T14:14:58;-5.00;75.40
38606;DHT22;24365;48.446;8.850;2022-12-18T14:20:00;-5.10;75.80
38606;DHT22;24365;48.446;8.850;2022-12-18T14:25:18;-5.10;76.70
38606;DHT22;24365;48.446;8.850;2022-12-18T14:35:24;-5.20;77.70
38606;DHT22;24365;48.446;8.850;2022-12-18T14:40:25;-5.40;78.90
38606;DHT22;24365;48.446;8.850;2022-12-18T14:50:42;-5.50;79.30
38606;DHT22;24365;48.446;8.850;2022-12-18T14:55:46;-5.70;79.30
38606;DHT22;24365;48.446;8.850;2022-12-18T15:00:48;-5.80;79.00
38606;DHT22;24365;48.446;8.850;2022-12-18T15:05:49;-6.00;79.50
38606;DHT22;24365;48.446;8.850;2022-12-18T15:10:50;-6.10;80.80
38606;DHT22;24365;48.446;8.850;2022-12-18T15:15:50;-6.20;81.00
38606;DHT22;24365;48.446;8.850;2022-12-18T15:20:59;-6.40;81.40
38606;DHT22;24365;48.446;8.850;2022-12-18T15:26:02;-6.50;81.80
38606;DHT22;24365;48.446;8.850;2022-12-18T15:31:19;-6.70;81.40
38606;DHT22;24365;48.446;8.850;2022-12-18T15:36:23;-6.80;82.20
38606;DHT22;24365;48.446;8.850;2022-12-18T15:41:24;-6.90;82.60
38606;DHT22;24365;48.446;8.850;2022-12-18T15:46:25;-7.00;82.90
38606;DHT22;24365;48.446;8.850;2022-12-18T15:51:35;-7.10;82.90
38606;DHT22;24365;48.446;8.850;2022-12-18T15:56:37;-7.20;82.80
38606;DHT22;24365;48.446;8.850;2022-12-18T16:01:57;-7.30;83.10
38606;DHT22;24365;48.446;8.850;2022-12-18T16:07:22;-7.30;83.40
38606;DHT22;24365;48.446;8.850;2022-12-18T16:12:25;-7.30;83.80
38606;DHT22;24365;48.446;8.850;2022-12-18T16:17:26;-7.30;83.90
38606;DHT22;24365;48.446;8.850;2022-12-18T16:22:29;-7.30;84.30
38606;DHT22;24365;48.446;8.850;2022-12-18T16:27:30;-7.30;84.60
38606;DHT22;24365;48.446;8.850;2022-12-18T16:32:30;-7.30;84.80
38606;DHT22;24365;48.446;8.850;2022-12-18T16:37:31;-7.20;85.10
38606;DHT22;24365;48.446;8.850;2022-12-18T16:42:32;-7.20;85.40
38606;DHT22;24365;48.446;8.850;2022-12-18T16:47:33;-7.20;85.80
38606;DHT22;24365;48.446;8.850;2022-12-18T16:52:35;-7.10;86.30
38606;DHT22;24365;48.446;8.850;2022-12-18T16:57:36;-7.00;86.40
38606;DHT22;24365;48.446;8.850;2022-12-18T17:02:37;-7.00;86.30
38606;DHT22;24365;48.446;8.850;2022-12-18T17:07:38;-7.00;86.40
38606;DHT22;24365;48.446;8.850;2022-12-18T17:12:39;-7.00;86.40
38606;DHT22;24365;48.446;8.850;2022-12-18T17:17:40;-6.90;86.50
38606;DHT22;24365;48.446;8.850;2022-12-18T17:22:40;-6.90;86.70
38606;DHT22;24365;48.446;8.850;2022-12-18T17:27:42;-6.90;86.60
38606;DHT22;24365;48.446;8.850;2022-12-18T17:32:42;-6.90;86.60
38606;DHT22;24365;48.446;8.850;2022-12-18T17:37:43;-6.90;86.60
38606;DHT22;24365;48.446;8.850;2022-12-18T17:42:44;-6.90;86.60
38606;DHT22;24365;48.446;8.850;2022-12-18T17:47:45;-6.90;86.60
38606;DHT22;24365;48.446;8.850;2022-12-18T17:52:46;-6.80;86.70
38606;DHT22;24365;48.446;8.850;2022-12-18T17:57:47;-6.80;86.90
38606;DHT22;24365;48.446;8.850;2022-12-18T18:02:47;-6.80;86.90
38606;DHT22;24365;48.446;8.850;2022-12-18T18:07:49;-6.80;86.90
38606;DHT22;24365;48.446;8.850;2022-12-18T18:12:49;-6.80;87.10
38606;DHT22;24365;48.446;8.850;2022-12-18T18:18:09;-6.80;87.30
38606;DHT22;24365;48.446;8.850;2022-12-18T18:23:10;-6.70;87.60
38606;DHT22;24365;48.446;8.850;2022-12-18T18:28:11;-6.70;87.40
38606;DHT22;24365;48.446;8.850;2022-12-18T18:33:11;-6.70;87.40
38606;DHT22;24365;48.446;8.850;2022-12-18T18:38:12;-6.70;87.20
38606;DHT22;24365;48.446;8.850;2022-12-18T18:43:13;-6.60;87.40
38606;DHT22;24365;48.446;8.850;2022-12-18T18:48:14;-6.60;87.20
38606;DHT22;24365;48.446;8.850;2022-12-18T18:53:15;-6.60;87.30
38606;DHT22;24365;48.446;8.850;2022-12-18T18:58:15;-6.60;87.40
38606;DHT22;24365;48.446;8.850;2022-12-18T19:03:16;-6.60;87.50
38606;DHT22;24365;48.446;8.850;2022-12-18T19:08:31;-6.50;87.70
38606;DHT22;24365;48.446;8.850;2022-12-18T19:13:32;-6.50;87.60
38606;DHT22;24365;48.446;8.850;2022-12-18T19:18:34;-6.50;87.10
38606;DHT22;24365;48.446;8.850;2022-12-18T19:23:40;-6.50;86.50
38606;DHT22;24365;48.446;8.850;2022-12-18T19:28:42;-6.60;86.10
38606;DHT22;24365;48.446;8.850;2022-12-18T19:33:45;-6.60;86.40
38606;DHT22;24365;48.446;8.850;2022-12-18T19:38:47;-6.60;85.90
38606;DHT22;24365;48.446;8.850;2022-12-18T19:43:49;-6.60;86.00
38606;DHT22;24365;48.446;8.850;2022-12-18T19:48:51;-6.50;86.10
38606;DHT22;24365;48.446;8.850;2022-12-18T19:53:53;-6.60;86.10
38606;DHT22;24365;48.446;8.850;2022-12-18T19:58:54;-6.50;86.60
38606;DHT22;24365;48.446;8.850;2022-12-18T20:03:55;-6.40;86.70
38606;DHT22;24365;48.446;8.850;2022-12-18T20:09:01;-6.40;86.80
38606;DHT22;24365;48.446;8.850;2022-12-18T20:14:02;-6.40;86.60
38606;DHT22;24365;48.446;8.850;2022-12-18T20:19:04;-6.40;86.40
38606;DHT22;24365;48.446;8.850;2022-12-18T20:24:06;-6.40;86.40
38606;DHT22;24365;48.446;8.850;2022-12-18T20:29:08;-6.40;86.40
38606;DHT22;24365;48.446;8.850;2022-12-18T20:34:09;-6.30;87.00
38606;DHT22;24365;48.446;8.850;2022-12-18T20:39:10;-6.30;87.20
38606;DHT22;24365;48.446;8.850;2022-12-18T20:44:14;-6.20;87.40
38606;DHT22;24365;48.446;8.850;2022-12-18T20:49:15;-6.20;87.50
38606;DHT22;24365;48.446;8.850;2022-12-18T20:54:16;-6.10;87.90
38606;DHT22;24365;48.446;8.850;2022-12-18T20:59:17;-6.00;87.70
38606;DHT22;24365;48.446;8.850;2022-12-18T21:04:19;-6.00;87.60
38606;DHT22;24365;48.446;8.850;2022-12-18T21:09:41;-5.90;87.30
38606;DHT22;24365;48.446;8.850;2022-12-18T21:14:43;-5.90;87.70
38606;DHT22;24365;48.446;8.850;2022-12-18T21:19:44;-5.80;87.10
38606;DHT22;24365;48.446;8.850;2022-12-18T21:24:44;-5.90;87.00
38606;DHT22;24365;48.446;8.850;2022-12-18T21:29:45;-5.90;87.10
38606;DHT22;24365;48.446;8.850;2022-12-18T21:34:46;-5.80;87.20
38606;DHT22;24365;48.446;8.850;2022-12-18T21:39:47;-5.80;87.30
38606;DHT22;24365;48.446;8.850;2022-12-18T21:44:48;-5.80;87.20
38606;DHT22;24365;48.446;8.850;2022-12-18T21:49:50;-5.80;86.70
38606;DHT22;24365;48.446;8.850;2022-12-18T21:54:52;-5.80;86.80
38606;DHT22;24365;48.446;8.850;2022-12-18T21:59:53;-5.70;86.80
38606;DHT22;24365;48.446;8.850;2022-12-18T22:04:53;-5.70;86.50
38606;DHT22;24365;48.446;8.850;2022-12-18T22:09:54;-5.70;86.60
38606;DHT22;24365;48.446;8.850;2022-12-18T22:14:55;-5.60;87.00
38606;DHT22;24365;48.446;8.850;2022-12-18T22:19:56;-5.60;87.30
38606;DHT22;24365;48.446;8.850;2022-12-18T22:24:56;-5.60;87.70
38606;DHT22;24365;48.446;8.850;2022-12-18T22:29:57;-5.60;87.60
38606;DHT22;24365;48.446;8.850;2022-12-18T22:35:04;-5.60;87.40
38606;DHT22;24365;48.446;8.850;2022-12-18T22:40:06;-5.60;87.50
38606;DHT22;24365;48.446;8.850;2022-12-18T22:45:07;-5.50;87.70
38606;DHT22;24365;48.446;8.850;2022-12-18T22:50:11;-5.50;87.80
38606;DHT22;24365;48.446;8.850;2022-12-18T22:55:12;-5.40;88.20
38606;DHT22;24365;48.446;8.850;2022-12-18T23:00:13;-5.40;88.30
38606;DHT22;24365;48.446;8.850;2022-12-18T23:05:14;-5.40;88.30
38606;DHT22;24365;48.446;8.850;2022-12-18T23:10:15;-5.30;88.70
38606;DHT22;24365;48.446;8.850;2022-12-18T23:15:16;-5.30;88.90
38606;DHT22;24365;48.446;8.850;2022-12-18T23:20:16;-5.20;89.00
38606;DHT22;24365;48.446;8.850;2022-12-18T23:25:17;-5.20;89.00
38606;DHT22;24365;48.446;8.850;2022-12-18T23:30:18;-5.20;88.90
38606;DHT22;24365;48.446;8.850;2022-12-18T23:35:19;-5.20;89.00
38606;DHT22;24365;48.446;8.850;2022-12-18T23:40:20;-5.10;89.20
38606;DHT22;24365;48.446;8.850;2022-12-18T23:45:20;-5.10;89.20
38606;DHT22;24365;48.446;8.850;2022-12-18T23:50:21;-5.10;89.10
38606;DHT22;24365;48.446;8.850;2022-12-18T23:55:22;-5.00;89.10
